Monje, Argentina
Current Conditions -  °F | °C
As of 9:00 AM on Friday 24 Oct 2014 (Local Time) from SAAR Reporting Station
Clear Clear  
Wind Chill: 79°   Ceiling: Unl
Heat Index: 80°   Visibility: 6mi
Dew Point: 63°   Wind: 3mph
Humidity: 57%   Direction: 50°NE
Pressure: 29.97"   Gusts: NA
Location:  32.35°S, 60.93°W
Report Text: SAAR 241200Z 05003KT CAVOK 26/17 Q1015
Loading
Personal Weather Stations






























Interactive Weather Map New forecast layout! Learn more

10-Day Weather Forecast

Advertisements
Track Severe Weather on mobile